TRA7987 EDHL-EDDP
Flight info
| Callsign | TRA7987 |
|---|---|
| Flight time | 0h 49m |
| Altitude | 27000 |
| Route | RAMAR2A/07 RAMAR Z998 BIRMO M736 MAG/N0433F280 Z20 KENIG/N0401F230 T959 KOJEC KOJEC1R |
| Aircraft | A20N/M-SDE2E3FGHIRWXY/LB1 |
Departure
| Time | 2026-04-21 09:55 |
|---|---|
| Airport | Lübeck Blankensee Airport (EDHL) |
Arrival
| Time | 2026-04-21 10:45 |
|---|---|
| Airport | Leipzig/Halle Airport (EDDP) |
| Time | Latitude | Longitude | Altitude | Speed | Heading |
|---|---|---|---|---|---|
| 2026-04-21 09:22 | 53.80477 | 10.70317 | 58 ft | 0 kts | 325° |
| 2026-04-21 09:50 | 53.80468 | 10.70328 | 50 ft | 2 kts | 325° |
| 2026-04-21 09:51 | 53.80456 | 10.70342 | 52 ft | 2 kts | 325° |
| 2026-04-21 09:51 | 53.80443 | 10.70359 | 50 ft | 2 kts | 302° |
| 2026-04-21 09:51 | 53.80441 | 10.70384 | 53 ft | 2 kts | 265° |
| 2026-04-21 09:51 | 53.80441 | 10.70410 | 50 ft | 2 kts | 271° |
| 2026-04-21 09:52 | 53.80441 | 10.70417 | 50 ft | 0 kts | 258° |
| 2026-04-21 09:52 | 53.80441 | 10.70416 | 50 ft | 1 kts | 258° |
| 2026-04-21 09:53 | 53.80429 | 10.70326 | 51 ft | 14 kts | 256° |
| 2026-04-21 09:53 | 53.80399 | 10.70205 | 58 ft | 1 kts | 248° |
| 2026-04-21 09:53 | 53.80379 | 10.70138 | 52 ft | 8 kts | 229° |
| 2026-04-21 09:53 | 53.80363 | 10.70129 | 56 ft | 0 kts | 189° |
| 2026-04-21 09:54 | 53.80363 | 10.70128 | 57 ft | 1 kts | 189° |
| 2026-04-21 09:54 | 53.80287 | 10.70142 | 62 ft | 18 kts | 170° |
| 2026-04-21 09:54 | 53.80212 | 10.70199 | 59 ft | 8 kts | 114° |
| 2026-04-21 09:54 | 53.80247 | 10.70422 | 51 ft | 60 kts | 70° |
| 2026-04-21 09:55 | 53.80488 | 10.71680 | 204 ft | 147 kts | 69° |
| 2026-04-21 09:55 | 53.80811 | 10.73474 | 1140 ft | 167 kts | 72° |
| 2026-04-21 09:55 | 53.81136 | 10.75409 | 2075 ft | 180 kts | 74° |
| 2026-04-21 09:55 | 53.81457 | 10.77506 | 2667 ft | 198 kts | 75° |
| 2026-04-21 09:56 | 53.81818 | 10.79888 | 3087 ft | 221 kts | 75° |
| 2026-04-21 09:56 | 53.82170 | 10.82352 | 3640 ft | 201 kts | 77° |
| 2026-04-21 09:56 | 53.82465 | 10.84626 | 4326 ft | 197 kts | 79° |
| 2026-04-21 09:56 | 53.82421 | 10.86913 | 4962 ft | 205 kts | 96° |
| 2026-04-21 09:57 | 53.81998 | 10.89340 | 5085 ft | 211 kts | 115° |
| 2026-04-21 09:57 | 53.81143 | 10.91116 | 5903 ft | 196 kts | 130° |
| 2026-04-21 09:57 | 53.79988 | 10.92590 | 6545 ft | 226 kts | 151° |
| 2026-04-21 09:57 | 53.78364 | 10.93128 | 7543 ft | 251 kts | 173° |
| 2026-04-21 09:58 | 53.76622 | 10.93187 | 8031 ft | 249 kts | 176° |
| 2026-04-21 09:58 | 53.74942 | 10.93453 | 8386 ft | 236 kts | 153° |
| 2026-04-21 09:58 | 53.73495 | 10.94677 | 8766 ft | 245 kts | 156° |
| 2026-04-21 09:58 | 53.71673 | 10.95018 | 9197 ft | 295 kts | 180° |
| 2026-04-21 09:59 | 53.69453 | 10.94596 | 9720 ft | 333 kts | 183° |
| 2026-04-21 09:59 | 53.67043 | 10.94147 | 10273 ft | 362 kts | 183° |
| 2026-04-21 09:59 | 53.64452 | 10.93697 | 10810 ft | 385 kts | 179° |
| 2026-04-21 09:59 | 53.61757 | 10.94182 | 11382 ft | 396 kts | 161° |
| 2026-04-21 10:00 | 53.59221 | 10.96048 | 12178 ft | 398 kts | 144° |
| 2026-04-21 10:00 | 53.56914 | 10.98684 | 13141 ft | 403 kts | 141° |
| 2026-04-21 10:00 | 53.54594 | 11.01379 | 14109 ft | 409 kts | 141° |
| 2026-04-21 10:00 | 53.52236 | 11.04115 | 14981 ft | 413 kts | 141° |
| 2026-04-21 10:01 | 53.49861 | 11.06870 | 15870 ft | 418 kts | 141° |
| 2026-04-21 10:01 | 53.47450 | 11.09665 | 16758 ft | 423 kts | 141° |
| 2026-04-21 10:01 | 53.45044 | 11.12452 | 17603 ft | 428 kts | 141° |
| 2026-04-21 10:01 | 53.42581 | 11.15302 | 18447 ft | 432 kts | 141° |
| 2026-04-21 10:02 | 53.37575 | 11.21086 | 19942 ft | 440 kts | 141° |
| 2026-04-21 10:02 | 53.35045 | 11.24006 | 20672 ft | 444 kts | 141° |
| 2026-04-21 10:02 | 53.32492 | 11.26950 | 21380 ft | 447 kts | 141° |
| 2026-04-21 10:03 | 53.29923 | 11.29909 | 22079 ft | 450 kts | 141° |
| 2026-04-21 10:03 | 53.27388 | 11.32993 | 22800 ft | 450 kts | 137° |
| 2026-04-21 10:03 | 53.25016 | 11.36396 | 23550 ft | 449 kts | 133° |
| 2026-04-21 10:03 | 53.22709 | 11.39924 | 24224 ft | 450 kts | 133° |
| 2026-04-21 10:04 | 53.20397 | 11.43462 | 24871 ft | 450 kts | 133° |
| 2026-04-21 10:04 | 53.18094 | 11.46984 | 25533 ft | 449 kts | 133° |
| 2026-04-21 10:04 | 53.15792 | 11.50501 | 26196 ft | 448 kts | 133° |
| 2026-04-21 10:04 | 53.13483 | 11.54026 | 26519 ft | 454 kts | 133° |
| 2026-04-21 10:05 | 53.11146 | 11.57592 | 26786 ft | 456 kts | 133° |
| 2026-04-21 10:05 | 53.08802 | 11.61166 | 27039 ft | 459 kts | 133° |
| 2026-04-21 10:05 | 53.06424 | 11.64790 | 26933 ft | 465 kts | 133° |
| 2026-04-21 10:05 | 53.04065 | 11.68374 | 26929 ft | 445 kts | 133° |
| 2026-04-21 10:06 | 53.01790 | 11.71830 | 26931 ft | 448 kts | 133° |
| 2026-04-21 10:06 | 52.99464 | 11.75367 | 26943 ft | 458 kts | 133° |
| 2026-04-21 10:06 | 52.97102 | 11.78953 | 26928 ft | 463 kts | 133° |
| 2026-04-21 10:06 | 52.94714 | 11.82577 | 26914 ft | 466 kts | 133° |
| 2026-04-21 10:07 | 52.92319 | 11.86206 | 26920 ft | 467 kts | 133° |
| 2026-04-21 10:07 | 52.89990 | 11.89723 | 26916 ft | 437 kts | 133° |
| 2026-04-21 10:07 | 52.87748 | 11.93114 | 26920 ft | 448 kts | 133° |
| 2026-04-21 10:07 | 52.85423 | 11.96633 | 26923 ft | 457 kts | 133° |
| 2026-04-21 10:08 | 52.83057 | 12.00208 | 26909 ft | 463 kts | 133° |
| 2026-04-21 10:08 | 52.80673 | 12.03806 | 26913 ft | 466 kts | 133° |
| 2026-04-21 10:08 | 52.78291 | 12.07397 | 26894 ft | 464 kts | 133° |
| 2026-04-21 10:08 | 52.75916 | 12.10972 | 26912 ft | 456 kts | 133° |
| 2026-04-21 10:09 | 52.73577 | 12.14490 | 26929 ft | 453 kts | 133° |
| 2026-04-21 10:09 | 52.71233 | 12.18017 | 26904 ft | 460 kts | 133° |
| 2026-04-21 10:09 | 52.68795 | 12.21485 | 26905 ft | 468 kts | 139° |
| 2026-04-21 10:09 | 52.65963 | 12.24233 | 26899 ft | 477 kts | 150° |
| 2026-04-21 10:10 | 52.62888 | 12.25939 | 26924 ft | 464 kts | 162° |
| 2026-04-21 10:10 | 52.59607 | 12.26582 | 26905 ft | 486 kts | 174° |
| 2026-04-21 10:10 | 52.57344 | 12.26414 | 26904 ft | 497 kts | 181° |
| 2026-04-21 10:10 | 52.53914 | 12.25236 | 26904 ft | 509 kts | 193° |
| 2026-04-21 10:11 | 52.50625 | 12.22979 | 26901 ft | 509 kts | 204° |
| 2026-04-21 10:11 | 52.46722 | 12.18671 | 26904 ft | 517 kts | 213° |
| 2026-04-21 10:11 | 52.43822 | 12.15143 | 26904 ft | 522 kts | 213° |
| 2026-04-21 10:11 | 52.40900 | 12.11588 | 26900 ft | 524 kts | 213° |
| 2026-04-21 10:12 | 52.38921 | 12.09181 | 26899 ft | 525 kts | 213° |
| 2026-04-21 10:12 | 52.35981 | 12.05613 | 26899 ft | 525 kts | 213° |
| 2026-04-21 10:12 | 52.33049 | 12.02056 | 26897 ft | 525 kts | 213° |
| 2026-04-21 10:12 | 52.30144 | 11.98535 | 26899 ft | 525 kts | 213° |
| 2026-04-21 10:13 | 52.27217 | 11.94990 | 26900 ft | 524 kts | 213° |
| 2026-04-21 10:13 | 52.24278 | 11.91435 | 26890 ft | 524 kts | 213° |
| 2026-04-21 10:13 | 52.21346 | 11.87896 | 26902 ft | 524 kts | 213° |
| 2026-04-21 10:13 | 52.18241 | 11.84837 | 26905 ft | 519 kts | 202° |
| 2026-04-21 10:14 | 52.14923 | 11.82729 | 26910 ft | 506 kts | 195° |
| 2026-04-21 10:14 | 52.11604 | 11.80918 | 26903 ft | 501 kts | 195° |
| 2026-04-21 10:14 | 52.08264 | 11.79380 | 26903 ft | 496 kts | 187° |
| 2026-04-21 10:14 | 52.04854 | 11.78783 | 26904 ft | 491 kts | 180° |
| 2026-04-21 10:15 | 52.01442 | 11.78430 | 26903 ft | 491 kts | 181° |
| 2026-04-21 10:15 | 51.98068 | 11.77407 | 26914 ft | 499 kts | 193° |
| 2026-04-21 10:15 | 51.94802 | 11.75318 | 26908 ft | 511 kts | 204° |
| 2026-04-21 10:15 | 51.91780 | 11.72230 | 26916 ft | 518 kts | 216° |
| 2026-04-21 10:16 | 51.89117 | 11.68276 | 26912 ft | 521 kts | 226° |
| 2026-04-21 10:16 | 51.86785 | 11.63834 | 26911 ft | 513 kts | 229° |
| 2026-04-21 10:16 | 51.84523 | 11.59415 | 26913 ft | 507 kts | 229° |
| 2026-04-21 10:16 | 51.82281 | 11.55037 | 26915 ft | 504 kts | 229° |
| 2026-04-21 10:17 | 51.80049 | 11.50683 | 26914 ft | 503 kts | 229° |
| 2026-04-21 10:17 | 51.77847 | 11.46392 | 26914 ft | 502 kts | 229° |
| 2026-04-21 10:17 | 51.75619 | 11.42054 | 26914 ft | 501 kts | 229° |
| 2026-04-21 10:17 | 51.73245 | 11.37945 | 26914 ft | 499 kts | 220° |
| 2026-04-21 10:18 | 51.70459 | 11.34657 | 26913 ft | 496 kts | 209° |
| 2026-04-21 10:18 | 51.67352 | 11.32327 | 26911 ft | 492 kts | 197° |
| 2026-04-21 10:18 | 51.64043 | 11.31032 | 26901 ft | 488 kts | 185° |
| 2026-04-21 10:18 | 51.60672 | 11.30815 | 26877 ft | 484 kts | 174° |
| 2026-04-21 10:19 | 51.57383 | 11.31659 | 26734 ft | 467 kts | 161° |
| 2026-04-21 10:19 | 51.54480 | 11.33521 | 26146 ft | 432 kts | 148° |
| 2026-04-21 10:19 | 51.52089 | 11.36072 | 25443 ft | 395 kts | 134° |
| 2026-04-21 10:19 | 51.50502 | 11.39347 | 24946 ft | 352 kts | 109° |
| 2026-04-21 10:20 | 51.50176 | 11.42979 | 24686 ft | 315 kts | 78° |
| 2026-04-21 10:20 | 51.50947 | 11.46066 | 24408 ft | 292 kts | 61° |
| 2026-04-21 10:20 | 51.51924 | 11.49022 | 23275 ft | 304 kts | 63° |
| 2026-04-21 10:20 | 51.52844 | 11.52068 | 22333 ft | 302 kts | 65° |
| 2026-04-21 10:21 | 51.53348 | 11.55216 | 22206 ft | 280 kts | 89° |
| 2026-04-21 10:21 | 51.53335 | 11.58118 | 22599 ft | 239 kts | 76° |
| 2026-04-21 10:21 | 51.53785 | 11.60496 | 22893 ft | 219 kts | 71° |
| 2026-04-21 10:21 | 51.54364 | 11.62935 | 22903 ft | 249 kts | 58° |
| 2026-04-21 10:22 | 51.55550 | 11.65184 | 22895 ft | 279 kts | 48° |
| 2026-04-21 10:22 | 51.56929 | 11.67589 | 22897 ft | 306 kts | 48° |
| 2026-04-21 10:22 | 51.58405 | 11.70164 | 22895 ft | 322 kts | 48° |
| 2026-04-21 10:22 | 51.59825 | 11.72916 | 22893 ft | 318 kts | 60° |
| 2026-04-21 10:23 | 51.60603 | 11.76238 | 22899 ft | 319 kts | 75° |
| 2026-04-21 10:23 | 51.61163 | 11.79698 | 22888 ft | 320 kts | 74° |
| 2026-04-21 10:23 | 51.61724 | 11.83162 | 22740 ft | 319 kts | 74° |
| 2026-04-21 10:23 | 51.62281 | 11.86614 | 22577 ft | 318 kts | 75° |
| 2026-04-21 10:24 | 51.62725 | 11.90102 | 22329 ft | 319 kts | 79° |
| 2026-04-21 10:24 | 51.63058 | 11.93626 | 22021 ft | 317 kts | 80° |
| 2026-04-21 10:24 | 51.63384 | 11.97116 | 21730 ft | 314 kts | 80° |
| 2026-04-21 10:24 | 51.63706 | 12.00570 | 21628 ft | 312 kts | 80° |
| 2026-04-21 10:25 | 51.64030 | 12.04037 | 21585 ft | 314 kts | 80° |
| 2026-04-21 10:25 | 51.64353 | 12.07516 | 21578 ft | 314 kts | 80° |
| 2026-04-21 10:25 | 51.64673 | 12.10995 | 21579 ft | 314 kts | 81° |
| 2026-04-21 10:25 | 51.64881 | 12.14502 | 21581 ft | 315 kts | 85° |
| 2026-04-21 10:26 | 51.65014 | 12.18016 | 21585 ft | 315 kts | 85° |
| 2026-04-21 10:26 | 51.65144 | 12.21473 | 21584 ft | 311 kts | 85° |
| 2026-04-21 10:26 | 51.65276 | 12.24992 | 21585 ft | 311 kts | 85° |
| 2026-04-21 10:26 | 51.65420 | 12.28482 | 21259 ft | 313 kts | 84° |
| 2026-04-21 10:27 | 51.65609 | 12.31938 | 20873 ft | 307 kts | 83° |
| 2026-04-21 10:27 | 51.65790 | 12.35348 | 20506 ft | 306 kts | 85° |
| 2026-04-21 10:27 | 51.65765 | 12.38707 | 20322 ft | 302 kts | 94° |
| 2026-04-21 10:27 | 51.65297 | 12.41945 | 20200 ft | 295 kts | 108° |
| 2026-04-21 10:28 | 51.64143 | 12.44677 | 19926 ft | 297 kts | 134° |
| 2026-04-21 10:28 | 51.62376 | 12.46272 | 19937 ft | 290 kts | 160° |
| 2026-04-21 10:28 | 51.60368 | 12.46763 | 19329 ft | 302 kts | 174° |
| 2026-04-21 10:28 | 51.58238 | 12.46258 | 18614 ft | 319 kts | 198° |
| 2026-04-21 10:29 | 51.56354 | 12.44303 | 17919 ft | 330 kts | 225° |
| 2026-04-21 10:29 | 51.55087 | 12.41224 | 17359 ft | 332 kts | 246° |
| 2026-04-21 10:29 | 51.54386 | 12.37703 | 16904 ft | 338 kts | 259° |
| 2026-04-21 10:29 | 51.54142 | 12.33735 | 16577 ft | 358 kts | 272° |
| 2026-04-21 10:30 | 51.54260 | 12.29824 | 15907 ft | 356 kts | 276° |
| 2026-04-21 10:30 | 51.54513 | 12.25838 | 15091 ft | 360 kts | 278° |
| 2026-04-21 10:30 | 51.54766 | 12.21801 | 14297 ft | 364 kts | 275° |
| 2026-04-21 10:30 | 51.54861 | 12.17713 | 13333 ft | 369 kts | 273° |
| 2026-04-21 10:31 | 51.54949 | 12.13580 | 12334 ft | 372 kts | 274° |
| 2026-04-21 10:31 | 51.55061 | 12.09411 | 11394 ft | 374 kts | 272° |
| 2026-04-21 10:31 | 51.54993 | 12.05254 | 10750 ft | 369 kts | 266° |
| 2026-04-21 10:31 | 51.54719 | 12.01218 | 10242 ft | 360 kts | 264° |
| 2026-04-21 10:32 | 51.54447 | 11.97247 | 9598 ft | 354 kts | 264° |
| 2026-04-21 10:32 | 51.54152 | 11.93445 | 9445 ft | 334 kts | 264° |
| 2026-04-21 10:32 | 51.53835 | 11.89830 | 9227 ft | 319 kts | 263° |
| 2026-04-21 10:32 | 51.53502 | 11.86381 | 9022 ft | 306 kts | 262° |
| 2026-04-21 10:33 | 51.53245 | 11.83051 | 8832 ft | 294 kts | 267° |
| 2026-04-21 10:33 | 51.53091 | 11.79840 | 8553 ft | 286 kts | 265° |
| 2026-04-21 10:33 | 51.52889 | 11.76642 | 7992 ft | 290 kts | 266° |
| 2026-04-21 10:33 | 51.52713 | 11.73480 | 7677 ft | 284 kts | 265° |
| 2026-04-21 10:34 | 51.52537 | 11.70350 | 7277 ft | 281 kts | 267° |
| 2026-04-21 10:34 | 51.52126 | 11.67288 | 6766 ft | 284 kts | 245° |
| 2026-04-21 10:34 | 51.50968 | 11.64750 | 6264 ft | 283 kts | 219° |
| 2026-04-21 10:34 | 51.49318 | 11.63252 | 6210 ft | 264 kts | 194° |
| 2026-04-21 10:35 | 51.47556 | 11.62977 | 6200 ft | 242 kts | 169° |
| 2026-04-21 10:35 | 51.46088 | 11.63865 | 6197 ft | 218 kts | 140° |
| 2026-04-21 10:35 | 51.45222 | 11.65525 | 6371 ft | 172 kts | 113° |
| 2026-04-21 10:35 | 51.44705 | 11.67184 | 6020 ft | 169 kts | 111° |
| 2026-04-21 10:36 | 51.44236 | 11.68959 | 5390 ft | 176 kts | 108° |
| 2026-04-21 10:36 | 51.43821 | 11.70762 | 5012 ft | 169 kts | 103° |
| 2026-04-21 10:36 | 51.43515 | 11.72616 | 4304 ft | 177 kts | 100° |
| 2026-04-21 10:36 | 51.43265 | 11.74546 | 3848 ft | 168 kts | 96° |
| 2026-04-21 10:37 | 51.43077 | 11.76225 | 3731 ft | 139 kts | 98° |
| 2026-04-21 10:37 | 51.42930 | 11.77650 | 3606 ft | 122 kts | 94° |
| 2026-04-21 10:37 | 51.42811 | 11.79061 | 3526 ft | 144 kts | 94° |
| 2026-04-21 10:37 | 51.42692 | 11.80720 | 3513 ft | 146 kts | 94° |
| 2026-04-21 10:38 | 51.42544 | 11.82242 | 3414 ft | 136 kts | 96° |
| 2026-04-21 10:38 | 51.42382 | 11.83692 | 3319 ft | 129 kts | 94° |
| 2026-04-21 10:38 | 51.42301 | 11.85086 | 3278 ft | 127 kts | 91° |
| 2026-04-21 10:38 | 51.42229 | 11.86528 | 3113 ft | 130 kts | 93° |
| 2026-04-21 10:39 | 51.42105 | 11.87956 | 2966 ft | 130 kts | 96° |
| 2026-04-21 10:39 | 51.41961 | 11.89419 | 2794 ft | 141 kts | 91° |
| 2026-04-21 10:39 | 51.41975 | 11.91043 | 2737 ft | 148 kts | 86° |
| 2026-04-21 10:39 | 51.41987 | 11.92696 | 2818 ft | 151 kts | 87° |
| 2026-04-21 10:40 | 51.41990 | 11.94326 | 2821 ft | 143 kts | 87° |
| 2026-04-21 10:40 | 51.42006 | 11.95865 | 2795 ft | 135 kts | 87° |
| 2026-04-21 10:40 | 51.41996 | 11.97328 | 2815 ft | 128 kts | 87° |
| 2026-04-21 10:40 | 51.42010 | 11.98830 | 2827 ft | 142 kts | 85° |
| 2026-04-21 10:41 | 51.42076 | 12.00453 | 2840 ft | 147 kts | 84° |
| 2026-04-21 10:41 | 51.42143 | 12.02005 | 2730 ft | 134 kts | 82° |
| 2026-04-21 10:41 | 51.42214 | 12.03459 | 2566 ft | 130 kts | 83° |
| 2026-04-21 10:41 | 51.42284 | 12.04937 | 2468 ft | 134 kts | 82° |
| 2026-04-21 10:42 | 51.42329 | 12.06450 | 2392 ft | 138 kts | 86° |
| 2026-04-21 10:42 | 51.42370 | 12.07986 | 2287 ft | 138 kts | 83° |
| 2026-04-21 10:42 | 51.42465 | 12.09613 | 2074 ft | 153 kts | 81° |
| 2026-04-21 10:42 | 51.42568 | 12.11242 | 1767 ft | 141 kts | 81° |
| 2026-04-21 10:43 | 51.42660 | 12.12731 | 1513 ft | 130 kts | 81° |
| 2026-04-21 10:43 | 51.42745 | 12.14152 | 1266 ft | 125 kts | 81° |
| 2026-04-21 10:43 | 51.42817 | 12.15532 | 1088 ft | 127 kts | 82° |
| 2026-04-21 10:43 | 51.42854 | 12.16998 | 1017 ft | 142 kts | 83° |
| 2026-04-21 10:44 | 51.42958 | 12.18608 | 841 ft | 145 kts | 81° |
| 2026-04-21 10:44 | 51.43055 | 12.20186 | 650 ft | 137 kts | 82° |
| 2026-04-21 10:44 | 51.43125 | 12.21670 | 469 ft | 129 kts | 81° |
| 2026-04-21 10:44 | 51.43201 | 12.22983 | 436 ft | 91 kts | 86° |
| 2026-04-21 10:45 | 51.43222 | 12.23567 | 450 ft | 37 kts | 86° |
| 2026-04-21 10:45 | 51.43239 | 12.23918 | 433 ft | 35 kts | 83° |
| 2026-04-21 10:45 | 51.43249 | 12.24314 | 440 ft | 35 kts | 92° |
| 2026-04-21 10:45 | 51.43185 | 12.24697 | 451 ft | 36 kts | 114° |
| 2026-04-21 10:46 | 51.43092 | 12.25008 | 454 ft | 12 kts | 118° |
| 2026-04-21 10:46 | 51.43080 | 12.25044 | 454 ft | 19 kts | 118° |
| 2026-04-21 10:46 | 51.43019 | 12.25116 | 452 ft | 0 kts | 172° |
| 2026-04-21 10:46 | 51.42982 | 12.25138 | 449 ft | 15 kts | 139° |
| 2026-04-21 10:47 | 51.42958 | 12.25258 | 450 ft | 9 kts | 141° |
| 2026-04-21 10:47 | 51.42865 | 12.25232 | 452 ft | 25 kts | 190° |
| 2026-04-21 10:47 | 51.42648 | 12.25150 | 463 ft | 36 kts | 194° |
| 2026-04-21 10:47 | 51.42451 | 12.25080 | 468 ft | 30 kts | 193° |
| 2026-04-21 10:48 | 51.42227 | 12.24990 | 479 ft | 36 kts | 194° |
| 2026-04-21 10:48 | 51.41983 | 12.24898 | 491 ft | 29 kts | 193° |
| 2026-04-21 10:48 | 51.41786 | 12.24821 | 480 ft | 25 kts | 193° |
| 2026-04-21 10:48 | 51.41667 | 12.24732 | 472 ft | 18 kts | 244° |
| 2026-04-21 10:49 | 51.41655 | 12.24511 | 472 ft | 18 kts | 268° |
| 2026-04-21 10:49 | 51.41650 | 12.24329 | 468 ft | 20 kts | 266° |
| 2026-04-21 10:49 | 51.41636 | 12.24061 | 472 ft | 29 kts | 266° |
| 2026-04-21 10:49 | 51.41623 | 12.23701 | 468 ft | 35 kts | 261° |
| 2026-04-21 10:50 | 51.41601 | 12.23364 | 463 ft | 22 kts | 265° |
| 2026-04-21 10:50 | 51.41624 | 12.23087 | 463 ft | 28 kts | 286° |
| 2026-04-21 10:50 | 51.41682 | 12.22766 | 461 ft | 29 kts | 285° |
| 2026-04-21 10:50 | 51.41721 | 12.22526 | 458 ft | 19 kts | 285° |
| 2026-04-21 10:51 | 51.41756 | 12.22327 | 453 ft | 18 kts | 285° |
| 2026-04-21 10:51 | 51.41779 | 12.22186 | 449 ft | 11 kts | 286° |
| 2026-04-21 10:51 | 51.41828 | 12.22162 | 448 ft | 10 kts | 10° |
| 2026-04-21 10:51 | 51.41863 | 12.22177 | 447 ft | 1 kts | 16° |
| 2026-04-21 10:52 | 51.41881 | 12.22186 | 430 ft | 0 kts | 16° |